createdAt,value
2022-11-28T00:02:17.928Z,101208.38
2022-11-28T00:04:44.697Z,101209.41
2022-11-28T00:07:12.237Z,101213.44
2022-11-28T00:09:39.159Z,101207.59
2022-11-28T00:12:05.935Z,101200.75
2022-11-28T00:14:32.453Z,101204.69
2022-11-28T00:16:59.045Z,101197.06
2022-11-28T00:19:25.732Z,101188.81
2022-11-28T00:21:52.464Z,101195.72
2022-11-28T00:24:19.084Z,101202.59
2022-11-28T00:26:45.565Z,101199.69
2022-11-28T00:29:12.252Z,101184.63
2022-11-28T00:31:42.940Z,101189.91
2022-11-28T00:34:12.091Z,101182.78
2022-11-28T00:36:38.744Z,101182.53
2022-11-28T00:39:06.043Z,101173.56
2022-11-28T00:41:35.260Z,101172.50
2022-11-28T00:44:02.021Z,101175.69
2022-11-28T00:46:29.254Z,101172.25
2022-11-28T00:48:57.044Z,101173.84
2022-11-28T00:51:29.492Z,101179.13
2022-11-28T00:53:58.282Z,101171.44
2022-11-28T00:56:33.516Z,101170.94
2022-11-28T00:59:00.405Z,101167.50
2022-11-28T01:01:30.355Z,101159.56
2022-11-28T01:03:59.457Z,101155.06
2022-11-28T01:06:34.854Z,101156.13
2022-11-28T01:09:05.184Z,101154.28
2022-11-28T01:11:32.019Z,101152.16
2022-11-28T01:14:01.433Z,101144.25
2022-11-28T01:16:29.194Z,101147.66
2022-11-28T01:18:55.936Z,101134.44
2022-11-28T01:21:22.499Z,101137.91
2022-11-28T01:23:49.109Z,101139.50
2022-11-28T01:26:19.899Z,101140.56
2022-11-28T01:28:47.290Z,101131.81
2022-11-28T01:31:20.072Z,101126.28
2022-11-28T01:33:47.042Z,101122.31
2022-11-28T01:36:14.575Z,101128.66
2022-11-28T01:38:42.060Z,101128.41
2022-11-28T01:41:09.464Z,101127.59
2022-11-28T01:43:37.138Z,101129.22
2022-11-28T01:46:05.391Z,101126.84
2022-11-28T01:48:39.827Z,101126.84
2022-11-28T01:51:10.158Z,101122.34
2022-11-28T01:53:41.786Z,101131.63
2022-11-28T01:56:15.149Z,101135.59
2022-11-28T01:58:46.570Z,101127.66
2022-11-28T02:01:13.545Z,101121.06
2022-11-28T02:03:48.655Z,101120.81
2022-11-28T02:06:19.036Z,101119.50
2022-11-28T02:08:45.977Z,101121.63
2022-11-28T02:11:43.109Z,101115.56
2022-11-28T02:14:15.608Z,101127.22
2022-11-28T02:16:45.165Z,101116.91
2022-11-28T02:19:28.682Z,101113.22
2022-11-28T02:22:17.750Z,101108.72
2022-11-28T02:24:56.560Z,101107.94
2022-11-28T02:27:32.103Z,101115.63
2022-11-28T02:30:19.464Z,101101.06
2022-11-28T02:33:03.554Z,101107.16
2022-11-28T02:35:46.652Z,101110.59
2022-11-28T02:38:18.595Z,101107.94
2022-11-28T02:41:02.166Z,101104.50
2022-11-28T02:43:43.807Z,101104.25
2022-11-28T02:46:21.213Z,101102.94
2022-11-28T02:48:50.944Z,101104.00
2022-11-28T02:51:27.290Z,101105.56
2022-11-28T02:53:55.909Z,101109.84
2022-11-28T02:56:25.364Z,101107.44
2022-11-28T02:58:52.702Z,101109.84
2022-11-28T03:01:36.887Z,101109.84
2022-11-28T03:04:13.075Z,101099.50
2022-11-28T03:07:05.434Z,101108.75
2022-11-28T03:09:46.351Z,101115.66
2022-11-28T03:12:18.902Z,101109.31
2022-11-28T03:14:58.900Z,101101.38
2022-11-28T03:17:59.169Z,101096.59
2022-11-28T03:20:39.962Z,101096.06
2022-11-28T03:23:30.599Z,101098.72
2022-11-28T03:26:24.667Z,101101.38
2022-11-28T03:29:18.113Z,101097.13
2022-11-28T03:32:06.085Z,101105.06
2022-11-28T03:34:37.264Z,101111.16
2022-11-28T03:37:11.213Z,101099.50
2022-11-28T03:39:42.769Z,101103.75
2022-11-28T03:42:14.768Z,101102.16
2022-11-28T03:44:52.603Z,101110.63
2022-11-28T03:47:19.359Z,101099.25
2022-11-28T03:49:52.293Z,101099.78
2022-11-28T03:52:29.544Z,101098.47
2022-11-28T03:55:01.141Z,101103.75
2022-11-28T03:57:27.574Z,101114.09
2022-11-28T03:59:56.455Z,101112.47
2022-11-28T04:02:41.431Z,101110.91
2022-11-28T04:05:22.707Z,101116.19
2022-11-28T04:08:24.368Z,101117.53
2022-11-28T04:11:00.381Z,101120.41
2022-11-28T04:13:36.500Z,101117.53
2022-11-28T04:16:40.364Z,101118.31
2022-11-28T04:19:19.180Z,101116.47
2022-11-28T04:22:05.138Z,101100.03
2022-11-28T04:24:38.720Z,101117.53
2022-11-28T04:27:11.237Z,101119.09
2022-11-28T04:29:44.416Z,101117.53
2022-11-28T04:32:13.536Z,101118.31
2022-11-28T04:34:45.201Z,101119.88
2022-11-28T04:37:15.124Z,101110.13
2022-11-28T04:39:45.737Z,101104.84
2022-11-28T04:42:18.470Z,101108.53
2022-11-28T04:44:53.333Z,101123.06
2022-11-28T04:47:23.073Z,101110.91
2022-11-28T04:49:50.031Z,101109.31
2022-11-28T04:52:27.259Z,101122.28
2022-11-28T04:55:09.018Z,101121.50
2022-11-28T04:57:39.632Z,101121.25
2022-11-28T05:00:11.680Z,101114.09
2022-11-28T05:02:40.801Z,101119.63
2022-11-28T05:05:14.129Z,101118.84
2022-11-28T05:07:40.841Z,101122.53
2022-11-28T05:10:08.638Z,101126.00
2022-11-28T05:12:35.170Z,101125.19
2022-11-28T05:15:01.707Z,101135.53
2022-11-28T05:17:28.336Z,101141.06
2022-11-28T05:19:54.759Z,101132.88
2022-11-28T05:22:21.221Z,101137.38
2022-11-28T05:24:47.755Z,101139.25
2022-11-28T05:27:14.610Z,101132.09
2022-11-28T05:29:46.913Z,101140.81
2022-11-28T05:32:16.035Z,101142.91
2022-11-28T05:34:42.798Z,101147.69
2022-11-28T05:37:09.519Z,101137.09
2022-11-28T05:39:36.031Z,101141.88
2022-11-28T05:42:02.545Z,101143.47
2022-11-28T05:44:29.209Z,101154.84
2022-11-28T05:46:55.801Z,101144.25
2022-11-28T05:49:22.324Z,101147.19
2022-11-28T05:51:49.334Z,101146.09
2022-11-28T05:54:15.963Z,101145.06
2022-11-28T05:56:42.736Z,101141.88
2022-11-28T05:59:10.535Z,101138.97
2022-11-28T06:01:37.143Z,101146.34
2022-11-28T06:04:03.888Z,101147.97
2022-11-28T06:06:33.458Z,101144.53
2022-11-28T06:09:00.414Z,101149.81
2022-11-28T06:11:29.538Z,101153.00
2022-11-28T06:13:56.817Z,101159.09
2022-11-28T06:16:26.513Z,101154.84
2022-11-28T06:18:59.073Z,101145.31
2022-11-28T06:21:26.110Z,101154.84
2022-11-28T06:23:53.195Z,101147.72
2022-11-28T06:26:23.243Z,101162.53
2022-11-28T06:28:50.584Z,101159.09
2022-11-28T06:31:20.693Z,101154.34
2022-11-28T06:33:47.833Z,101156.19
2022-11-28T06:36:16.463Z,101163.31
2022-11-28T06:38:43.341Z,101160.66
2022-11-28T06:41:12.817Z,101166.50
2022-11-28T06:43:40.133Z,101171.78
2022-11-28T06:46:17.013Z,101174.44
2022-11-28T06:48:44.557Z,101169.44
2022-11-28T06:51:11.779Z,101165.72
2022-11-28T06:53:38.343Z,101172.63
2022-11-28T06:56:07.010Z,101173.66
2022-11-28T06:58:34.297Z,101176.31
2022-11-28T07:01:12.677Z,101179.75
2022-11-28T07:03:39.807Z,101186.88
2022-11-28T07:06:07.577Z,101184.25
2022-11-28T07:08:34.875Z,101185.03
2022-11-28T07:11:15.901Z,101188.75
2022-11-28T07:13:43.700Z,101189.81
2022-11-28T07:16:15.670Z,101180.81
2022-11-28T07:18:42.461Z,101195.13
2022-11-28T07:21:09.458Z,101194.06
2022-11-28T07:23:36.098Z,101189.59
2022-11-28T07:26:04.097Z,101186.94
2022-11-28T07:28:31.680Z,101192.50
2022-11-28T07:31:05.477Z,101186.94
2022-11-28T07:33:33.857Z,101194.88
2022-11-28T07:36:11.312Z,101199.38
2022-11-28T07:38:37.930Z,101198.59
2022-11-28T07:41:10.399Z,101207.13
2022-11-28T07:43:37.421Z,101208.72
2022-11-28T07:46:09.358Z,101214.59
2022-11-28T07:48:36.214Z,101210.66
2022-11-28T07:51:08.347Z,101216.50
2022-11-28T07:53:35.892Z,101208.28
2022-11-28T07:56:07.917Z,101205.38
2022-11-28T07:58:35.885Z,101205.16
2022-11-28T08:01:10.677Z,101216.03
2022-11-28T08:03:37.936Z,101212.63
2022-11-28T08:06:05.409Z,101214.25
2022-11-28T08:08:33.007Z,101218.50
2022-11-28T08:11:01.728Z,101216.38
2022-11-28T08:13:28.878Z,101206.56
2022-11-28T08:15:55.936Z,101205.53
2022-11-28T08:18:22.690Z,101209.78
2022-11-28T08:20:49.264Z,101207.66
2022-11-28T08:23:16.064Z,101214.03
2022-11-28T08:25:42.627Z,101211.09
2022-11-28T08:28:09.105Z,101219.81
2022-11-28T08:30:35.680Z,101222.25
2022-11-28T08:33:02.274Z,101224.88
2022-11-28T08:35:28.925Z,101221.44
2022-11-28T08:38:00.377Z,101232.59
2022-11-28T08:40:28.840Z,101229.13
2022-11-28T08:42:55.868Z,101232.31
2022-11-28T08:45:22.388Z,101237.34
2022-11-28T08:47:49.069Z,101234.44
2022-11-28T08:50:15.950Z,101236.00
2022-11-28T08:52:42.544Z,101235.22
2022-11-28T08:55:09.576Z,101240.53
2022-11-28T08:57:36.353Z,101232.53
2022-11-28T09:00:04.249Z,101232.53
2022-11-28T09:02:30.867Z,101226.72
2022-11-28T09:04:57.755Z,101238.91
2022-11-28T09:07:24.684Z,101243.16
2022-11-28T09:09:51.593Z,101247.94
2022-11-28T09:12:18.243Z,101242.88
2022-11-28T09:14:44.975Z,101244.47
2022-11-28T09:17:11.634Z,101240.47
2022-11-28T09:19:38.298Z,101242.06
2022-11-28T09:22:04.996Z,101243.09
2022-11-28T09:24:31.677Z,101249.75
2022-11-28T09:26:58.340Z,101243.38
2022-11-28T09:29:25.223Z,101251.06
2022-11-28T09:31:54.711Z,101251.34
2022-11-28T09:34:21.458Z,101252.41
2022-11-28T09:36:50.203Z,101249.47
2022-11-28T09:39:16.770Z,101250.53
2022-11-28T09:41:49.216Z,101248.13
2022-11-28T09:44:21.987Z,101248.88
2022-11-28T09:46:51.747Z,101251.56
2022-11-28T09:49:23.288Z,101258.47
2022-11-28T09:52:07.139Z,101258.19
2022-11-28T09:54:52.358Z,101258.47
2022-11-28T09:57:30.588Z,101256.34
2022-11-28T09:59:57.332Z,101260.03
2022-11-28T10:02:38.892Z,101261.34
2022-11-28T10:05:17.183Z,101249.94
2022-11-28T10:07:55.344Z,101252.59
2022-11-28T10:10:39.671Z,101249.13
2022-11-28T10:13:18.936Z,101270.13
2022-11-28T10:15:54.579Z,101269.81
2022-11-28T10:18:35.361Z,101268.50
2022-11-28T10:21:10.566Z,101267.69
2022-11-28T10:23:44.621Z,101258.41
2022-11-28T10:26:16.987Z,101264.75
2022-11-28T10:28:48.754Z,101266.06
2022-11-28T10:31:24.362Z,101256.78
2022-11-28T10:34:01.335Z,101261.03
2022-11-28T10:36:34.093Z,101266.59
2022-11-28T10:39:12.293Z,101259.16
2022-11-28T10:42:14.972Z,101264.72
2022-11-28T10:45:07.611Z,101259.66
2022-11-28T10:47:40.236Z,101259.91
2022-11-28T10:50:19.873Z,101264.69
2022-11-28T10:53:28.259Z,101268.66
2022-11-28T10:56:11.246Z,101266.28
2022-11-28T10:58:56.784Z,101269.72
2022-11-28T11:01:23.527Z,101260.94
2022-11-28T11:03:50.460Z,101263.59
2022-11-28T11:06:16.996Z,101264.94
2022-11-28T11:08:47.809Z,101256.38
2022-11-28T11:11:27.810Z,101255.84
2022-11-28T11:14:05.387Z,101257.44
2022-11-28T11:16:49.643Z,101259.25
2022-11-28T11:19:23.141Z,101267.22
2022-11-28T11:22:20.469Z,101263.47
2022-11-28T11:25:16.167Z,101269.84
2022-11-28T11:27:58.096Z,101257.31
2022-11-28T11:30:38.720Z,101272.50
2022-11-28T11:33:12.737Z,101277.28
2022-11-28T11:35:47.068Z,101284.44
2022-11-28T11:38:22.890Z,101275.94
2022-11-28T11:40:51.061Z,101279.13
2022-11-28T11:43:25.815Z,101279.66
2022-11-28T11:46:04.767Z,101275.94
2022-11-28T11:48:36.660Z,101265.28
2022-11-28T11:51:03.502Z,101269.81
2022-11-28T11:53:30.355Z,101279.63
2022-11-28T11:56:02.927Z,101278.84
2022-11-28T11:58:46.844Z,101275.63
2022-11-28T12:01:16.310Z,101278.28
2022-11-28T12:03:58.627Z,101279.84
2022-11-28T12:06:34.294Z,101277.75
2022-11-28T12:09:25.295Z,101274.78
2022-11-28T12:12:00.521Z,101272.38
2022-11-28T12:14:27.232Z,101277.13
2022-11-28T12:17:46.763Z,101284.31
2022-11-28T12:20:22.856Z,101274.19
2022-11-28T12:23:06.519Z,101275.81
2022-11-28T12:25:33.170Z,101272.06
2022-11-28T12:28:17.192Z,101276.03
2022-11-28T12:30:55.952Z,101276.53
2022-11-28T12:33:52.945Z,101277.31
2022-11-28T12:36:38.066Z,101285.56
2022-11-28T12:39:38.041Z,101279.97
2022-11-28T12:42:23.314Z,101278.59
2022-11-28T12:44:59.812Z,101279.44
2022-11-28T12:48:02.087Z,101278.59
2022-11-28T12:50:39.868Z,101277.28
2022-11-28T12:53:15.533Z,101281.28
2022-11-28T12:55:48.853Z,101285.25
2022-11-28T12:58:24.671Z,101275.69
2022-11-28T13:01:00.294Z,101270.88
2022-11-28T13:03:55.302Z,101273.50
2022-11-28T13:06:45.498Z,101271.56
2022-11-28T13:09:29.965Z,101275.31
2022-11-28T13:12:30.106Z,101284.38
2022-11-28T13:15:00.240Z,101275.59
2022-11-28T13:17:40.569Z,101287.56
2022-11-28T13:20:33.244Z,101285.97
2022-11-28T13:23:24.852Z,101287.28
2022-11-28T13:26:13.015Z,101290.22
2022-11-28T13:29:09.742Z,101286.50
2022-11-28T13:32:00.344Z,101285.97
2022-11-28T13:34:29.965Z,101289.16
2022-11-28T13:40:20.229Z,101288.81
2022-11-28T13:43:07.200Z,101293.06
2022-11-28T13:45:39.195Z,101296.53
2022-11-28T13:48:57.522Z,101296.25
2022-11-28T13:51:32.543Z,101310.63
2022-11-28T13:54:31.855Z,101309.28
2022-11-28T13:57:23.594Z,101308.75
2022-11-28T13:59:53.397Z,101309.03
2022-11-28T14:02:34.275Z,101304.53
2022-11-28T14:05:02.507Z,101304.53
2022-11-28T14:07:32.233Z,101314.09
2022-11-28T14:10:31.224Z,101324.47
2022-11-28T14:12:57.774Z,101331.94
2022-11-28T14:15:51.498Z,101331.16
2022-11-28T14:18:57.191Z,101331.41
2022-11-28T14:21:46.715Z,101335.38
2022-11-28T14:24:21.893Z,101339.66
2022-11-28T14:26:59.022Z,101339.66
2022-11-28T14:29:38.469Z,101330.31
2022-11-28T14:34:52.804Z,101342.25
2022-11-28T14:37:19.462Z,101345.72
2022-11-28T14:39:49.824Z,101338.53
2022-11-28T14:42:36.780Z,101346.53
2022-11-28T14:45:42.950Z,101348.91
2022-11-28T14:48:22.068Z,101343.09
2022-11-28T14:50:54.730Z,101343.34
2022-11-28T14:53:34.890Z,101344.66
2022-11-28T14:56:13.677Z,101344.94
2022-11-28T14:58:47.411Z,101353.19
2022-11-28T15:01:26.905Z,101344.69
2022-11-28T15:04:07.910Z,101349.22
2022-11-28T15:06:38.066Z,101344.69
2022-11-28T15:09:17.679Z,101348.38
2022-11-28T15:12:04.301Z,101349.41
2022-11-28T15:14:33.273Z,101349.97
2022-11-28T15:17:05.934Z,101359.53
2022-11-28T15:19:38.371Z,101351.56
2022-11-28T15:22:05.460Z,101368.63
2022-11-28T15:24:33.840Z,101370.72
2022-11-28T15:27:08.698Z,101369.13
2022-11-28T15:29:36.772Z,101365.13
2022-11-28T15:32:05.106Z,101363.25
2022-11-28T15:34:34.992Z,101369.09
2022-11-28T15:37:15.897Z,101365.91
2022-11-28T15:39:49.833Z,101366.72
2022-11-28T15:42:28.996Z,101381.88
2022-11-28T15:45:41.963Z,101382.69
2022-11-28T15:48:39.301Z,101382.91
2022-11-28T15:51:07.580Z,101386.66
2022-11-28T15:53:42.871Z,101396.28
2022-11-28T15:56:15.104Z,101395.25
2022-11-28T15:58:44.175Z,101395.78
2022-11-28T16:01:15.681Z,101394.22
2022-11-28T16:03:47.479Z,101397.13
2022-11-28T16:06:14.779Z,101401.94
2022-11-28T16:08:50.723Z,101394.47
2022-11-28T16:11:20.158Z,101389.34
2022-11-28T16:13:47.814Z,101394.97
2022-11-28T16:16:19.408Z,101401.34
2022-11-28T16:18:56.221Z,101407.78
2022-11-28T16:21:26.144Z,101405.13
2022-11-28T16:23:52.885Z,101421.16
2022-11-28T16:26:37.693Z,101421.94
2022-11-28T16:29:07.085Z,101428.63
2022-11-28T16:31:34.519Z,101425.97
2022-11-28T16:34:02.778Z,101419.84
2022-11-28T16:36:37.467Z,101422.78
2022-11-28T16:39:14.416Z,101425.44
2022-11-28T16:41:48.541Z,101431.59
2022-11-28T16:44:19.344Z,101427.84
2022-11-28T16:46:57.596Z,101430.22
2022-11-28T16:49:32.444Z,101432.91
2022-11-28T16:52:30.658Z,101435.81
2022-11-28T16:54:58.937Z,101441.19
2022-11-28T16:57:31.620Z,101439.84
2022-11-28T17:00:20.920Z,101439.84
2022-11-28T17:02:52.951Z,101444.38
2022-11-28T17:05:19.425Z,101445.69
2022-11-28T17:07:46.127Z,101448.59
2022-11-28T17:10:13.594Z,101455.03
2022-11-28T17:12:40.558Z,101466.47
2022-11-28T17:15:14.460Z,101458.19
2022-11-28T17:17:40.929Z,101462.44
2022-11-28T17:20:08.311Z,101465.63
2022-11-28T17:22:41.481Z,101467.19
2022-11-28T17:25:15.030Z,101471.22
2022-11-28T17:27:41.873Z,101464.28
2022-11-28T17:30:16.521Z,101465.63
2022-11-28T17:32:46.153Z,101475.50
2022-11-28T17:35:22.452Z,101470.69
2022-11-28T17:37:49.127Z,101476.31
2022-11-28T17:40:33.988Z,101474.16
2022-11-28T17:43:01.287Z,101473.13
2022-11-28T17:45:30.344Z,101485.91
2022-11-28T17:47:56.869Z,101477.41
2022-11-28T17:50:23.384Z,101473.13
2022-11-28T17:52:50.151Z,101484.88
2022-11-28T17:55:18.468Z,101487.25
2022-11-28T17:57:44.999Z,101488.88
2022-11-28T18:00:14.368Z,101489.41
2022-11-28T18:02:41.399Z,101491.28
2022-11-28T18:05:08.468Z,101494.50
2022-11-28T18:07:34.988Z,101499.00
2022-11-28T18:10:02.005Z,101493.44
2022-11-28T18:12:28.765Z,101501.44
2022-11-28T18:14:55.348Z,101494.78
2022-11-28T18:17:21.895Z,101503.81
2022-11-28T18:19:52.057Z,101501.72
2022-11-28T18:22:21.124Z,101503.84
2022-11-28T18:24:47.736Z,101504.91
2022-11-28T18:27:14.358Z,101504.13
2022-11-28T18:29:41.322Z,101509.44
2022-11-28T18:32:08.281Z,101501.47
2022-11-28T18:34:34.955Z,101504.66
2022-11-28T18:37:01.560Z,101509.44
2022-11-28T18:39:28.169Z,101507.06
2022-11-28T18:42:18.156Z,101509.72
2022-11-28T18:44:44.665Z,101505.47
2022-11-28T18:47:11.272Z,101522.50
2022-11-28T18:49:37.809Z,101515.84
2022-11-28T18:52:04.423Z,101514.50
2022-11-28T18:54:32.327Z,101524.88
2022-11-28T18:56:59.744Z,101526.78
2022-11-28T18:59:26.915Z,101526.00
2022-11-28T19:01:53.530Z,101534.50
2022-11-28T19:04:20.073Z,101535.03
2022-11-28T19:06:48.435Z,101541.13
2022-11-28T19:09:17.051Z,101532.91
2022-11-28T19:11:44.953Z,101540.09
2022-11-28T19:14:16.739Z,101534.78
2022-11-28T19:16:45.157Z,101542.72
2022-11-28T19:19:12.267Z,101548.84
2022-11-28T19:21:38.944Z,101545.09
2022-11-28T19:24:08.137Z,101543.00
2022-11-28T19:26:35.840Z,101549.09
2022-11-28T19:29:02.667Z,101552.28
2022-11-28T19:31:31.951Z,101549.38
2022-11-28T19:34:06.634Z,101552.03
2022-11-28T19:36:36.413Z,101552.56
2022-11-28T19:39:04.056Z,101556.53
2022-11-28T19:41:31.038Z,101556.53
2022-11-28T19:43:57.942Z,101555.47
2022-11-28T19:46:27.158Z,101553.63
2022-11-28T19:48:57.523Z,101555.47
2022-11-28T19:51:24.319Z,101554.41
2022-11-28T19:53:50.883Z,101556.00
2022-11-28T19:56:20.465Z,101557.88
2022-11-28T19:58:48.021Z,101561.06
2022-11-28T20:01:19.034Z,101565.88
2022-11-28T20:03:47.832Z,101569.88
2022-11-28T20:06:18.859Z,101577.59
2022-11-28T20:08:46.211Z,101568.53
2022-11-28T20:11:18.924Z,101580.78
2022-11-28T20:13:46.462Z,101582.88
2022-11-28T20:16:15.365Z,101586.88
2022-11-28T20:18:44.281Z,101583.44
2022-11-28T20:21:15.002Z,101585.81
2022-11-28T20:23:51.498Z,101580.50
2022-11-28T20:26:20.034Z,101571.44
2022-11-28T20:28:47.438Z,101577.53
2022-11-28T20:31:31.679Z,101584.22
2022-11-28T20:33:58.788Z,101590.06
2022-11-28T20:36:27.138Z,101593.25
2022-11-28T20:38:55.519Z,101594.06
2022-11-28T20:41:24.238Z,101593.00
2022-11-28T20:43:50.906Z,101606.00
2022-11-28T20:46:28.116Z,101599.38
2022-11-28T20:48:54.992Z,101606.25
2022-11-28T20:51:35.044Z,101601.75
2022-11-28T20:54:02.791Z,101607.81
2022-11-28T20:56:51.691Z,101600.94
2022-11-28T20:59:20.904Z,101600.66
2022-11-28T21:01:48.191Z,101608.09
2022-11-28T21:04:16.826Z,101616.63
2022-11-28T21:06:44.798Z,101628.28
2022-11-28T21:09:12.572Z,101621.38
2022-11-28T21:14:27.480Z,101617.63
2022-11-28T21:16:54.213Z,101622.41
2022-11-28T21:19:20.948Z,101617.06
2022-11-28T21:21:47.544Z,101614.41
2022-11-28T21:24:14.748Z,101618.34
2022-11-28T21:26:45.284Z,101624.69
2022-11-28T21:29:16.687Z,101626.53
2022-11-28T21:31:44.890Z,101627.59
2022-11-28T21:34:14.641Z,101634.47
2022-11-28T21:36:41.947Z,101641.06
2022-11-28T21:39:20.034Z,101643.13
2022-11-28T21:41:47.226Z,101637.03
2022-11-28T21:44:13.992Z,101636.97
2022-11-28T21:46:40.547Z,101645.16
2022-11-28T21:49:07.225Z,101639.03
2022-11-28T21:51:34.038Z,101634.00
2022-11-28T21:54:02.106Z,101636.66
2022-11-28T21:56:28.651Z,101638.47
2022-11-28T21:58:55.286Z,101642.19
2022-11-28T22:01:22.039Z,101645.63
2022-11-28T22:03:49.275Z,101642.69
2022-11-28T22:06:22.459Z,101645.56
2022-11-28T22:08:49.199Z,101646.09
2022-11-28T22:11:16.425Z,101657.47
2022-11-28T22:13:45.333Z,101651.88
2022-11-28T22:16:16.730Z,101650.25
2022-11-28T22:18:43.473Z,101653.38
2022-11-28T22:21:43.323Z,101664.50
2022-11-28T22:23:57.301Z,101661.78
2022-11-28T22:26:23.831Z,101663.91
2022-11-28T22:28:53.901Z,101659.66
2022-11-28T22:31:21.292Z,101660.69
2022-11-28T22:33:49.082Z,101660.69
2022-11-28T22:36:18.548Z,101669.47
2022-11-28T22:38:46.308Z,101672.13
2022-11-28T22:41:23.353Z,101664.41
2022-11-28T22:43:56.478Z,101664.13
2022-11-28T22:46:23.323Z,101666.75
2022-11-28T22:48:50.811Z,101675.25
2022-11-28T22:51:25.155Z,101677.34
2022-11-28T22:53:56.588Z,101673.91
2022-11-28T22:56:23.735Z,101682.63
2022-11-28T22:58:50.825Z,101680.00
2022-11-28T23:01:22.810Z,101681.84
2022-11-28T23:03:50.309Z,101682.63
2022-11-28T23:06:25.725Z,101686.31
2022-11-28T23:08:52.663Z,101682.09
2022-11-28T23:11:23.339Z,101678.66
2022-11-28T23:13:51.583Z,101681.31
2022-11-28T23:16:27.697Z,101682.34
2022-11-28T23:18:56.631Z,101683.94
2022-11-28T23:21:24.923Z,101685.00
2022-11-28T23:23:52.071Z,101682.34
2022-11-28T23:26:22.992Z,101690.28
2022-11-28T23:28:50.312Z,101686.84
2022-11-28T23:31:18.343Z,101683.13
2022-11-28T23:33:45.364Z,101690.84
2022-11-28T23:36:19.277Z,101693.50
2022-11-28T23:38:47.502Z,101688.97
2022-11-28T23:41:14.256Z,101691.06
2022-11-28T23:44:35.691Z,101692.94
2022-11-28T23:47:02.398Z,101697.44
2022-11-28T23:49:28.956Z,101698.75
2022-11-28T23:51:55.645Z,101697.94
2022-11-28T23:54:22.070Z,101704.31
2022-11-28T23:57:10.521Z,101704.31
2022-11-28T23:59:37.499Z,101696.34
